createdAt,value
2023-04-16T00:01:58.415Z,9.70
2023-04-16T00:04:25.562Z,9.70
2023-04-16T00:06:52.592Z,9.70
2023-04-16T00:09:19.516Z,9.70
2023-04-16T00:11:46.286Z,9.70
2023-04-16T00:14:13.139Z,9.70
2023-04-16T00:16:40.219Z,9.70
2023-04-16T00:19:07.459Z,9.70
2023-04-16T00:21:34.625Z,9.70
2023-04-16T00:24:01.332Z,9.70
2023-04-16T00:26:28.291Z,9.70
2023-04-16T00:28:55.409Z,9.70
2023-04-16T00:31:29.846Z,9.70
2023-04-16T00:33:57.034Z,9.70
2023-04-16T00:36:25.235Z,9.60
2023-04-16T00:38:52.191Z,9.60
2023-04-16T00:41:19.237Z,9.60
2023-04-16T00:43:46.328Z,9.60
2023-04-16T00:46:13.311Z,9.60
2023-04-16T00:48:41.335Z,9.70
2023-04-16T00:51:09.178Z,9.70
2023-04-16T00:53:36.380Z,9.60
2023-04-16T00:56:04.845Z,9.60
2023-04-16T00:58:33.329Z,9.60
2023-04-16T01:01:00.692Z,9.70
2023-04-16T01:03:38.646Z,9.60
2023-04-16T01:06:06.802Z,9.60
2023-04-16T01:08:33.690Z,9.60
2023-04-16T01:11:00.498Z,9.70
2023-04-16T01:13:27.581Z,9.60
2023-04-16T01:15:54.710Z,9.70
2023-04-16T01:18:23.213Z,9.70
2023-04-16T01:20:51.277Z,9.70
2023-04-16T01:23:18.940Z,9.60
2023-04-16T01:25:46.674Z,9.60
2023-04-16T01:28:13.692Z,9.60
2023-04-16T01:30:40.723Z,9.60
2023-04-16T01:33:39.693Z,9.60
2023-04-16T01:36:07.764Z,9.60
2023-04-16T01:38:34.663Z,9.60
2023-04-16T01:41:01.969Z,9.60
2023-04-16T01:43:29.089Z,9.60
2023-04-16T01:46:18.047Z,9.60
2023-04-16T01:48:45.243Z,9.60
2023-04-16T01:51:12.261Z,9.60
2023-04-16T01:53:39.136Z,9.60
2023-04-16T01:56:06.794Z,9.60
2023-04-16T01:58:34.311Z,9.60
2023-04-16T02:01:01.581Z,9.60
2023-04-16T02:03:28.794Z,9.60
2023-04-16T02:05:55.946Z,9.60
2023-04-16T02:08:23.327Z,9.60
2023-04-16T02:10:50.776Z,9.60
2023-04-16T02:13:17.582Z,9.60
2023-04-16T02:15:48.241Z,9.60
2023-04-16T02:18:18.156Z,9.60
2023-04-16T02:20:47.327Z,9.60
2023-04-16T02:23:17.443Z,9.60
2023-04-16T02:25:46.565Z,9.60
2023-04-16T02:28:15.980Z,9.60
2023-04-16T02:30:44.593Z,9.60
2023-04-16T02:33:13.209Z,9.60
2023-04-16T02:35:49.237Z,9.60
2023-04-16T02:38:16.075Z,9.60
2023-04-16T02:40:43.819Z,9.60
2023-04-16T02:43:11.130Z,9.60
2023-04-16T02:45:37.966Z,9.60
2023-04-16T02:48:07.299Z,9.60
2023-04-16T02:50:34.116Z,9.60
2023-04-16T02:53:00.980Z,9.60
2023-04-16T02:55:29.410Z,9.60
2023-04-16T02:57:56.325Z,9.60
2023-04-16T03:00:23.163Z,9.60
2023-04-16T03:02:50.117Z,9.50
2023-04-16T03:05:17.212Z,9.50
2023-04-16T03:07:44.098Z,9.60
2023-04-16T03:10:11.991Z,9.60
2023-04-16T03:12:39.209Z,9.60
2023-04-16T03:15:07.369Z,9.60
2023-04-16T03:17:34.280Z,9.60
2023-04-16T03:20:01.624Z,9.60
2023-04-16T03:22:28.661Z,9.60
2023-04-16T03:24:55.620Z,9.60
2023-04-16T03:27:22.469Z,9.60
2023-04-16T03:29:49.411Z,9.60
2023-04-16T03:32:17.317Z,9.60
2023-04-16T03:34:44.442Z,9.60
2023-04-16T03:37:12.092Z,9.50
2023-04-16T03:39:39.290Z,9.50
2023-04-16T03:42:06.233Z,9.50
2023-04-16T03:44:34.470Z,9.50
2023-04-16T03:47:02.009Z,9.50
2023-04-16T03:49:29.020Z,9.50
2023-04-16T03:51:56.773Z,9.50
2023-04-16T03:54:25.598Z,9.50
2023-04-16T03:57:02.406Z,9.50
2023-04-16T03:59:29.480Z,9.40
2023-04-16T04:01:56.483Z,9.40
2023-04-16T04:04:23.467Z,9.40
2023-04-16T04:06:50.430Z,9.40
2023-04-16T04:09:17.777Z,9.40
2023-04-16T04:11:44.499Z,9.40
2023-04-16T04:14:11.243Z,9.40
2023-04-16T04:16:38.137Z,9.40
2023-04-16T04:19:05.102Z,9.40
2023-04-16T04:21:31.961Z,9.40
2023-04-16T04:23:58.829Z,9.40
2023-04-16T04:26:25.820Z,9.40
2023-04-16T04:28:52.626Z,9.40
2023-04-16T04:31:19.510Z,9.40
2023-04-16T04:33:46.439Z,9.40
2023-04-16T04:36:13.408Z,9.40
2023-04-16T04:38:40.704Z,9.40
2023-04-16T04:41:07.802Z,9.40
2023-04-16T04:43:37.042Z,9.50
2023-04-16T04:46:04.062Z,9.40
2023-04-16T04:48:31.915Z,9.40
2023-04-16T04:50:58.957Z,9.40
2023-04-16T04:53:25.927Z,9.40
2023-04-16T04:55:55.603Z,9.40
2023-04-16T04:58:25.627Z,9.40
2023-04-16T05:00:52.628Z,9.40
2023-04-16T05:03:21.502Z,9.40
2023-04-16T05:05:48.573Z,9.50
2023-04-16T05:08:15.604Z,9.50
2023-04-16T05:10:42.394Z,9.50
2023-04-16T05:13:09.246Z,9.50
2023-04-16T05:15:36.026Z,9.50
2023-04-16T05:18:02.937Z,9.50
2023-04-16T05:20:29.852Z,9.50
2023-04-16T05:22:56.655Z,9.50
2023-04-16T05:25:23.594Z,9.50
2023-04-16T05:27:50.402Z,9.50
2023-04-16T05:30:17.131Z,9.50
2023-04-16T05:32:43.924Z,9.40
2023-04-16T05:35:11.090Z,9.40
2023-04-16T05:37:37.983Z,9.40
2023-04-16T05:40:05.240Z,9.40
2023-04-16T05:42:32.269Z,9.40
2023-04-16T05:44:59.113Z,9.40
2023-04-16T05:47:25.960Z,9.40
2023-04-16T05:49:52.845Z,9.40
2023-04-16T05:52:19.745Z,9.40
2023-04-16T05:54:46.552Z,9.40
2023-04-16T05:57:14.132Z,9.40
2023-04-16T05:59:41.075Z,9.40
2023-04-16T06:02:08.069Z,9.40
2023-04-16T06:04:35.889Z,9.50
2023-04-16T06:07:02.762Z,9.50
2023-04-16T06:09:30.567Z,9.50
2023-04-16T06:11:57.951Z,9.50
2023-04-16T06:14:24.818Z,9.60
2023-04-16T06:16:51.594Z,9.60
2023-04-16T06:19:18.387Z,9.60
2023-04-16T06:21:45.500Z,9.60
2023-04-16T06:24:13.286Z,9.50
2023-04-16T06:26:40.427Z,9.50
2023-04-16T06:29:07.506Z,9.60
2023-04-16T06:31:34.700Z,9.60
2023-04-16T06:34:01.641Z,9.50
2023-04-16T06:36:29.155Z,9.60
2023-04-16T06:38:56.168Z,9.60
2023-04-16T06:41:25.432Z,9.60
2023-04-16T06:43:52.421Z,9.60
2023-04-16T06:46:19.277Z,9.60
2023-04-16T06:48:46.084Z,9.60
2023-04-16T06:51:13.360Z,9.70
2023-04-16T06:53:40.347Z,9.60
2023-04-16T06:56:07.419Z,9.60
2023-04-16T06:58:34.250Z,9.70
2023-04-16T07:01:02.708Z,9.70
2023-04-16T07:03:29.743Z,9.70
2023-04-16T07:05:56.871Z,9.70
2023-04-16T07:08:24.460Z,9.70
2023-04-16T07:10:52.742Z,9.70
2023-04-16T07:13:20.446Z,9.80
2023-04-16T07:15:47.708Z,9.80
2023-04-16T07:18:14.532Z,9.80
2023-04-16T07:20:41.524Z,9.90
2023-04-16T07:23:08.317Z,9.90
2023-04-16T07:25:35.198Z,9.90
2023-04-16T07:28:03.731Z,9.90
2023-04-16T07:30:34.221Z,9.90
2023-04-16T07:33:04.538Z,9.90
2023-04-16T07:35:32.302Z,10.00
2023-04-16T07:37:59.218Z,10.00
2023-04-16T07:40:26.611Z,10.00
2023-04-16T07:42:54.413Z,10.00
2023-04-16T07:45:21.176Z,10.00
2023-04-16T07:47:48.013Z,10.10
2023-04-16T07:50:16.341Z,10.10
2023-04-16T07:52:45.283Z,10.10
2023-04-16T07:55:12.107Z,10.10
2023-04-16T07:57:38.934Z,10.10
2023-04-16T08:00:06.946Z,10.10
2023-04-16T08:02:43.790Z,10.10
2023-04-16T08:05:12.490Z,10.10
2023-04-16T08:07:39.334Z,10.10
2023-04-16T08:10:06.636Z,10.10
2023-04-16T08:12:33.574Z,10.10
2023-04-16T08:15:00.403Z,10.10
2023-04-16T08:17:28.769Z,10.10
2023-04-16T08:19:55.649Z,10.20
2023-04-16T08:22:22.577Z,10.20
2023-04-16T08:24:49.470Z,10.20
2023-04-16T08:27:19.739Z,10.30
2023-04-16T08:29:48.012Z,10.30
2023-04-16T08:32:14.998Z,10.30
2023-04-16T08:34:42.142Z,10.30
2023-04-16T08:37:09.427Z,10.30
2023-04-16T08:39:36.490Z,10.30
2023-04-16T08:42:06.023Z,10.40
2023-04-16T08:44:35.205Z,10.40
2023-04-16T08:47:02.845Z,10.40
2023-04-16T08:49:30.026Z,10.40
2023-04-16T08:51:57.544Z,10.40
2023-04-16T08:55:00.160Z,10.40
2023-04-16T08:57:35.624Z,10.40
2023-04-16T09:00:03.181Z,10.40
2023-04-16T09:02:31.557Z,10.50
2023-04-16T09:05:00.664Z,10.50
2023-04-16T09:07:29.579Z,10.50
2023-04-16T09:09:59.462Z,10.50
2023-04-16T09:12:26.474Z,10.50
2023-04-16T09:14:53.440Z,10.60
2023-04-16T09:17:20.384Z,10.60
2023-04-16T09:19:47.404Z,10.70
2023-04-16T09:22:14.384Z,10.70
2023-04-16T09:24:41.978Z,10.70
2023-04-16T09:27:09.170Z,10.70
2023-04-16T09:29:37.769Z,10.70
2023-04-16T09:32:09.281Z,10.80
2023-04-16T09:35:00.577Z,10.80
2023-04-16T09:37:31.287Z,10.80
2023-04-16T09:40:04.058Z,10.80
2023-04-16T09:42:36.462Z,10.80
2023-04-16T09:45:05.696Z,10.80
2023-04-16T09:47:41.521Z,10.80
2023-04-16T09:50:11.923Z,10.80
2023-04-16T09:52:39.389Z,10.90
2023-04-16T09:55:06.653Z,10.90
2023-04-16T09:57:33.527Z,10.90
2023-04-16T10:00:05.946Z,11.00
2023-04-16T10:02:34.622Z,11.00
2023-04-16T10:05:03.296Z,11.00
2023-04-16T10:07:36.006Z,11.00
2023-04-16T10:10:04.360Z,11.00
2023-04-16T10:12:32.860Z,11.00
2023-04-16T10:14:59.804Z,11.00
2023-04-16T10:17:29.906Z,11.00
2023-04-16T10:19:58.106Z,11.00
2023-04-16T10:22:25.835Z,11.10
2023-04-16T10:24:53.201Z,11.10
2023-04-16T10:27:21.177Z,11.20
2023-04-16T10:29:49.264Z,11.20
2023-04-16T10:32:17.913Z,11.30
2023-04-16T10:34:45.117Z,11.30
2023-04-16T10:37:12.539Z,11.30
2023-04-16T10:39:39.363Z,11.40
2023-04-16T10:42:10.565Z,11.40
2023-04-16T10:44:37.990Z,11.40
2023-04-16T10:47:12.292Z,11.40
2023-04-16T10:49:39.782Z,11.40
2023-04-16T10:52:19.138Z,11.30
2023-04-16T10:54:50.261Z,11.40
2023-04-16T10:57:19.639Z,11.40
2023-04-16T10:59:49.301Z,11.40
2023-04-16T11:02:19.970Z,11.50
2023-04-16T11:04:48.983Z,11.50
2023-04-16T11:07:19.539Z,11.50
2023-04-16T11:09:59.770Z,11.50
2023-04-16T11:12:37.709Z,11.50
2023-04-16T11:15:09.450Z,11.60
2023-04-16T11:17:52.773Z,11.60
2023-04-16T11:20:21.795Z,11.60
2023-04-16T11:22:58.257Z,11.70
2023-04-16T11:25:31.890Z,11.70
2023-04-16T11:28:01.532Z,11.70
2023-04-16T11:30:36.280Z,11.70
2023-04-16T11:33:04.166Z,11.70
2023-04-16T11:35:31.511Z,11.80
2023-04-16T11:37:58.779Z,11.80
2023-04-16T11:40:29.120Z,11.80
2023-04-16T11:42:56.883Z,11.80
2023-04-16T11:45:24.815Z,11.90
2023-04-16T11:47:55.449Z,11.90
2023-04-16T11:50:27.659Z,11.90
2023-04-16T11:53:04.824Z,11.90
2023-04-16T11:55:31.608Z,12.00
2023-04-16T11:58:10.999Z,12.00
2023-04-16T12:00:37.891Z,12.00
2023-04-16T12:03:04.846Z,12.00
2023-04-16T12:05:39.383Z,12.00
2023-04-16T12:08:07.945Z,12.00
2023-04-16T12:10:37.287Z,12.00
2023-04-16T12:13:11.462Z,12.00
2023-04-16T12:16:16.604Z,11.90
2023-04-16T12:19:01.301Z,12.00
2023-04-16T12:22:00.758Z,12.00
2023-04-16T12:24:27.689Z,12.00
2023-04-16T12:27:03.141Z,12.10
2023-04-16T12:29:30.044Z,12.10
2023-04-16T12:31:56.914Z,12.10
2023-04-16T12:34:25.547Z,12.20
2023-04-16T12:37:10.938Z,12.40
2023-04-16T12:39:37.744Z,12.50
2023-04-16T12:42:06.417Z,12.60
2023-04-16T12:44:33.255Z,12.70
2023-04-16T12:47:00.118Z,12.80
2023-04-16T12:49:26.911Z,12.90
2023-04-16T12:51:53.769Z,13.00
2023-04-16T12:54:20.558Z,13.20
2023-04-16T12:56:47.293Z,13.30
2023-04-16T12:59:14.266Z,13.40
2023-04-16T13:01:41.080Z,13.40
2023-04-16T13:04:08.092Z,13.50
2023-04-16T13:06:36.804Z,13.50
2023-04-16T13:09:04.856Z,13.60
2023-04-16T13:11:32.640Z,13.60
2023-04-16T13:13:59.514Z,13.60
2023-04-16T13:16:26.551Z,13.50
2023-04-16T13:18:53.375Z,13.50
2023-04-16T13:21:20.183Z,13.50
2023-04-16T13:23:47.091Z,13.50
2023-04-16T13:26:15.835Z,13.40
2023-04-16T13:28:42.664Z,13.40
2023-04-16T13:31:09.477Z,13.40
2023-04-16T13:33:36.567Z,13.40
2023-04-16T13:36:03.502Z,13.40
2023-04-16T13:38:30.254Z,13.40
2023-04-16T13:40:57.043Z,13.50
2023-04-16T13:43:24.157Z,13.60
2023-04-16T13:45:51.838Z,13.70
2023-04-16T13:48:18.762Z,13.80
2023-04-16T13:50:45.804Z,13.90
2023-04-16T13:53:12.661Z,14.00
2023-04-16T13:55:39.454Z,14.00
2023-04-16T13:58:07.234Z,14.00
2023-04-16T14:00:34.260Z,14.00
2023-04-16T14:03:01.294Z,14.10
2023-04-16T14:05:28.213Z,14.10
2023-04-16T14:07:54.949Z,14.10
2023-04-16T14:10:21.716Z,14.10
2023-04-16T14:12:48.528Z,14.10
2023-04-16T14:15:15.478Z,14.00
2023-04-16T14:17:44.143Z,14.00
2023-04-16T14:20:14.129Z,14.00
2023-04-16T14:22:42.536Z,14.10
2023-04-16T14:25:09.404Z,14.10
2023-04-16T14:27:36.441Z,14.10
2023-04-16T14:30:03.694Z,14.10
2023-04-16T14:32:30.716Z,14.00
2023-04-16T14:34:57.732Z,14.00
2023-04-16T14:37:24.616Z,13.90
2023-04-16T14:39:51.404Z,13.90
2023-04-16T14:42:18.342Z,13.80
2023-04-16T14:44:45.202Z,13.80
2023-04-16T14:47:12.050Z,13.80
2023-04-16T14:49:38.931Z,13.70
2023-04-16T14:52:06.985Z,13.80
2023-04-16T14:54:34.194Z,13.70
2023-04-16T14:57:02.053Z,13.80
2023-04-16T14:59:28.903Z,13.80
2023-04-16T15:01:57.036Z,13.90
2023-04-16T15:04:24.720Z,13.80
2023-04-16T15:06:51.703Z,13.70
2023-04-16T15:09:18.548Z,13.70
2023-04-16T15:11:45.760Z,13.60
2023-04-16T15:14:12.834Z,13.60
2023-04-16T15:16:40.013Z,13.40
2023-04-16T15:19:07.011Z,13.40
2023-04-16T15:21:33.802Z,13.40
2023-04-16T15:24:00.606Z,13.40
2023-04-16T15:26:27.655Z,13.40
2023-04-16T15:28:54.407Z,13.40
2023-04-16T15:31:21.887Z,13.40
2023-04-16T15:33:49.260Z,13.40
2023-04-16T15:36:16.453Z,13.40
2023-04-16T15:38:43.394Z,13.40
2023-04-16T15:41:10.954Z,13.30
2023-04-16T15:43:38.370Z,13.30
2023-04-16T15:46:05.444Z,13.20
2023-04-16T15:48:32.332Z,13.20
2023-04-16T15:50:59.098Z,13.10
2023-04-16T15:53:26.189Z,13.10
2023-04-16T15:55:53.817Z,13.00
2023-04-16T15:58:23.746Z,13.00
2023-04-16T16:00:50.851Z,13.00
2023-04-16T16:03:18.689Z,12.90
2023-04-16T16:05:47.989Z,12.90
2023-04-16T16:08:15.808Z,13.00
2023-04-16T16:10:43.081Z,13.10
2023-04-16T16:13:13.174Z,13.10
2023-04-16T16:15:43.202Z,13.10
2023-04-16T16:18:10.146Z,13.20
2023-04-16T16:20:37.186Z,13.10
2023-04-16T16:23:04.126Z,13.10
2023-04-16T16:25:31.058Z,13.10
2023-04-16T16:27:58.866Z,13.10
2023-04-16T16:30:26.394Z,13.20
2023-04-16T16:32:54.027Z,13.20
2023-04-16T16:35:20.985Z,13.10
2023-04-16T16:37:47.784Z,13.10
2023-04-16T16:40:14.945Z,13.10
2023-04-16T16:42:41.714Z,13.00
2023-04-16T16:45:09.241Z,13.00
2023-04-16T16:47:36.089Z,13.00
2023-04-16T16:50:03.393Z,13.00
2023-04-16T16:52:30.614Z,13.00
2023-04-16T16:54:57.983Z,13.00
2023-04-16T16:57:25.011Z,13.10
2023-04-16T16:59:51.822Z,13.00
2023-04-16T17:02:19.085Z,13.00
2023-04-16T17:04:46.097Z,13.00
2023-04-16T17:07:19.078Z,13.00
2023-04-16T17:09:46.177Z,13.00
2023-04-16T17:12:13.016Z,13.00
2023-04-16T17:14:39.969Z,12.90
2023-04-16T17:17:06.906Z,12.90
2023-04-16T17:19:33.751Z,12.90
2023-04-16T17:22:00.706Z,12.80
2023-04-16T17:24:27.581Z,12.80
2023-04-16T17:26:54.325Z,12.80
2023-04-16T17:29:25.818Z,12.80
2023-04-16T17:31:53.780Z,12.80
2023-04-16T17:34:21.099Z,12.70
2023-04-16T17:36:48.113Z,12.60
2023-04-16T17:39:14.974Z,12.60
2023-04-16T17:41:41.872Z,12.60
2023-04-16T17:44:11.127Z,12.50
2023-04-16T17:46:38.649Z,12.60
2023-04-16T17:49:05.698Z,12.60
2023-04-16T17:51:32.623Z,12.50
2023-04-16T17:53:59.480Z,12.50
2023-04-16T17:56:26.295Z,12.50
2023-04-16T17:58:53.079Z,12.40
2023-04-16T18:01:19.834Z,12.30
2023-04-16T18:03:46.866Z,12.30
2023-04-16T18:06:13.849Z,12.20
2023-04-16T18:08:40.756Z,12.20
2023-04-16T18:11:10.547Z,12.10
2023-04-16T18:13:37.512Z,12.10
2023-04-16T18:16:04.496Z,12.10
2023-04-16T18:18:31.309Z,12.10
2023-04-16T18:20:58.240Z,12.10
2023-04-16T18:23:25.373Z,12.00
2023-04-16T18:25:52.293Z,12.10
2023-04-16T18:28:19.256Z,12.10
2023-04-16T18:30:46.186Z,12.10
2023-04-16T18:33:39.020Z,12.10
2023-04-16T18:36:02.209Z,12.00
2023-04-16T18:38:32.199Z,12.00
2023-04-16T18:40:59.106Z,12.00
2023-04-16T18:43:27.063Z,12.00
2023-04-16T18:45:53.923Z,11.90
2023-04-16T18:48:21.079Z,11.90
2023-04-16T18:50:47.967Z,11.80
2023-04-16T18:53:14.863Z,11.80
2023-04-16T18:55:41.665Z,11.80
2023-04-16T18:58:08.470Z,11.80
2023-04-16T19:00:35.432Z,11.70
2023-04-16T19:03:07.096Z,11.70
2023-04-16T19:05:34.288Z,11.70
2023-04-16T19:08:01.376Z,11.70
2023-04-16T19:10:28.275Z,11.60
2023-04-16T19:12:57.081Z,11.60
2023-04-16T19:15:23.956Z,11.60
2023-04-16T19:17:50.962Z,11.60
2023-04-16T19:20:17.932Z,11.50
2023-04-16T19:22:44.731Z,11.50
2023-04-16T19:25:11.638Z,11.50
2023-04-16T19:27:38.561Z,11.40
2023-04-16T19:30:06.703Z,11.40
2023-04-16T19:32:33.826Z,11.30
2023-04-16T19:35:00.635Z,11.30
2023-04-16T19:37:27.585Z,11.30
2023-04-16T19:39:54.946Z,11.20
2023-04-16T19:42:21.829Z,11.20
2023-04-16T19:44:48.669Z,11.20
2023-04-16T19:47:15.665Z,11.20
2023-04-16T19:49:43.745Z,11.10
2023-04-16T19:52:10.814Z,11.00
2023-04-16T19:54:37.791Z,11.00
2023-04-16T19:57:04.664Z,11.00
2023-04-16T19:59:32.275Z,11.00
2023-04-16T20:01:59.113Z,11.00
2023-04-16T20:04:26.172Z,11.00
2023-04-16T20:06:53.306Z,11.00
2023-04-16T20:09:20.201Z,10.90
2023-04-16T20:11:47.418Z,10.90
2023-04-16T20:14:14.265Z,10.90
2023-04-16T20:16:43.609Z,10.90
2023-04-16T20:19:10.983Z,10.90
2023-04-16T20:21:38.139Z,10.80
2023-04-16T20:24:05.170Z,10.80
2023-04-16T20:26:34.069Z,10.80
2023-04-16T20:29:01.093Z,10.80
2023-04-16T20:31:29.237Z,10.80
2023-04-16T20:33:56.199Z,10.80
2023-04-16T20:36:22.925Z,10.80
2023-04-16T20:38:51.506Z,10.80
2023-04-16T20:41:22.530Z,10.80
2023-04-16T20:43:50.253Z,10.80
2023-04-16T20:46:17.762Z,10.80
2023-04-16T20:48:44.775Z,10.80
2023-04-16T20:51:11.645Z,10.80
2023-04-16T20:53:38.481Z,10.80
2023-04-16T20:56:06.782Z,10.80
2023-04-16T20:58:33.761Z,10.70
2023-04-16T21:01:00.825Z,10.70
2023-04-16T21:03:27.800Z,10.70
2023-04-16T21:05:55.487Z,10.70
2023-04-16T21:08:22.988Z,10.70
2023-04-16T21:10:50.489Z,10.70
2023-04-16T21:13:17.538Z,10.70
2023-04-16T21:15:45.584Z,10.70
2023-04-16T21:18:12.789Z,10.70
2023-04-16T21:20:39.896Z,10.70
2023-04-16T21:23:07.048Z,10.70
2023-04-16T21:25:33.849Z,10.60
2023-04-16T21:28:00.717Z,10.70
2023-04-16T21:30:27.475Z,10.70
2023-04-16T21:32:54.871Z,10.70
2023-04-16T21:35:21.794Z,10.70
2023-04-16T21:37:48.575Z,10.70
2023-04-16T21:40:15.631Z,10.70
2023-04-16T21:42:42.577Z,10.60
2023-04-16T21:45:10.444Z,10.60
2023-04-16T21:47:37.941Z,10.70
2023-04-16T21:50:05.647Z,10.60
2023-04-16T21:52:32.965Z,10.60
2023-04-16T21:55:01.122Z,10.60
2023-04-16T21:57:27.883Z,10.60
2023-04-16T21:59:54.847Z,10.50
2023-04-16T22:02:21.755Z,10.50
2023-04-16T22:04:48.700Z,10.50
2023-04-16T22:07:16.857Z,10.60
2023-04-16T22:09:43.842Z,10.50
2023-04-16T22:12:10.669Z,10.50
2023-04-16T22:14:42.062Z,10.50
2023-04-16T22:17:14.905Z,10.50
2023-04-16T22:19:42.405Z,10.50
2023-04-16T22:22:09.178Z,10.40
2023-04-16T22:24:36.050Z,10.50
2023-04-16T22:27:03.083Z,10.40
2023-04-16T22:29:29.820Z,10.40
2023-04-16T22:31:56.776Z,10.30
2023-04-16T22:34:23.585Z,10.30
2023-04-16T22:36:50.659Z,10.30
2023-04-16T22:39:17.475Z,10.30
2023-04-16T22:41:44.212Z,10.30
2023-04-16T22:44:10.977Z,10.30
2023-04-16T22:46:37.788Z,10.30
2023-04-16T22:49:04.697Z,10.30
2023-04-16T22:51:31.556Z,10.30
2023-04-16T22:53:58.331Z,10.30
2023-04-16T22:56:28.758Z,10.30
2023-04-16T22:58:55.753Z,10.20
2023-04-16T23:01:23.367Z,10.20
2023-04-16T23:03:50.463Z,10.10
2023-04-16T23:06:17.455Z,10.20
2023-04-16T23:08:44.200Z,10.20
2023-04-16T23:11:11.260Z,10.20
2023-04-16T23:13:38.116Z,10.20
2023-04-16T23:16:05.366Z,10.20
2023-04-16T23:18:32.206Z,10.20
2023-04-16T23:20:59.051Z,10.20
2023-04-16T23:23:26.092Z,10.10
2023-04-16T23:25:53.927Z,10.20
2023-04-16T23:28:21.539Z,10.20
2023-04-16T23:30:52.233Z,10.20
2023-04-16T23:33:19.205Z,10.20
2023-04-16T23:35:47.447Z,10.20
2023-04-16T23:38:14.319Z,10.20
2023-04-16T23:40:41.187Z,10.20
2023-04-16T23:43:08.148Z,10.20
2023-04-16T23:45:35.021Z,10.20
2023-04-16T23:48:02.036Z,10.10
2023-04-16T23:50:28.925Z,10.10
2023-04-16T23:52:55.919Z,10.10
2023-04-16T23:55:22.842Z,10.00
2023-04-16T23:57:49.826Z,10.00
